sensor_id;sensor_type;location;lat;lon;timestamp;temperature;humidity
49218;DHT22;35045;51.194;7.268;2022-09-12T00:01:28;14.30;99.90
49218;DHT22;35045;51.194;7.268;2022-09-12T00:03:54;14.30;99.90
49218;DHT22;35045;51.194;7.268;2022-09-12T00:06:20;14.30;99.90
49218;DHT22;35045;51.194;7.268;2022-09-12T00:08:45;14.20;99.90
49218;DHT22;35045;51.194;7.268;2022-09-12T00:11:11;14.20;99.90
49218;DHT22;35045;51.194;7.268;2022-09-12T00:13:36;14.20;99.90
49218;DHT22;35045;51.194;7.268;2022-09-12T00:16:02;14.10;99.90
49218;DHT22;35045;51.194;7.268;2022-09-12T00:18:27;14.20;99.90
49218;DHT22;35045;51.194;7.268;2022-09-12T00:20:51;14.10;99.90
49218;DHT22;35045;51.194;7.268;2022-09-12T00:23:16;14.10;99.90
49218;DHT22;35045;51.194;7.268;2022-09-12T00:25:45;14.10;99.90
49218;DHT22;35045;51.194;7.268;2022-09-12T00:28:11;14.00;99.90
49218;DHT22;35045;51.194;7.268;2022-09-12T00:30:44;14.10;99.90
49218;DHT22;35045;51.194;7.268;2022-09-12T00:33:10;14.00;99.90
49218;DHT22;35045;51.194;7.268;2022-09-12T00:35:45;14.00;99.90
49218;DHT22;35045;51.194;7.268;2022-09-12T00:38:13;14.00;99.90
49218;DHT22;35045;51.194;7.268;2022-09-12T00:40:39;14.00;99.90
49218;DHT22;35045;51.194;7.268;2022-09-12T00:43:04;13.90;99.90
49218;DHT22;35045;51.194;7.268;2022-09-12T00:45:29;13.90;99.90
49218;DHT22;35045;51.194;7.268;2022-09-12T00:47:55;13.90;99.90
49218;DHT22;35045;51.194;7.268;2022-09-12T00:50:21;13.90;99.90
49218;DHT22;35045;51.194;7.268;2022-09-12T00:52:51;13.90;99.90
49218;DHT22;35045;51.194;7.268;2022-09-12T00:55:25;13.90;99.90
49218;DHT22;35045;51.194;7.268;2022-09-12T00:57:52;13.80;99.90
49218;DHT22;35045;51.194;7.268;2022-09-12T01:00:20;13.80;99.90
49218;DHT22;35045;51.194;7.268;2022-09-12T01:02:48;13.80;99.90
49218;DHT22;35045;51.194;7.268;2022-09-12T01:05:14;13.80;99.90
49218;DHT22;35045;51.194;7.268;2022-09-12T01:07:39;13.80;99.90
49218;DHT22;35045;51.194;7.268;2022-09-12T01:10:04;13.80;99.90
49218;DHT22;35045;51.194;7.268;2022-09-12T01:12:29;13.80;99.90
49218;DHT22;35045;51.194;7.268;2022-09-12T01:14:54;13.70;99.90
49218;DHT22;35045;51.194;7.268;2022-09-12T01:17:19;13.70;99.90
49218;DHT22;35045;51.194;7.268;2022-09-12T01:19:59;13.70;99.90
49218;DHT22;35045;51.194;7.268;2022-09-12T01:22:36;13.70;99.90
49218;DHT22;35045;51.194;7.268;2022-09-12T01:25:22;13.70;99.90
49218;DHT22;35045;51.194;7.268;2022-09-12T01:27:51;13.70;99.90
49218;DHT22;35045;51.194;7.268;2022-09-12T01:30:20;13.70;99.90
49218;DHT22;35045;51.194;7.268;2022-09-12T01:32:54;13.70;99.90
49218;DHT22;35045;51.194;7.268;2022-09-12T01:43:20;13.70;99.90
49218;DHT22;35045;51.194;7.268;2022-09-12T01:45:48;13.60;99.90
49218;DHT22;35045;51.194;7.268;2022-09-12T01:50:51;13.60;99.90
49218;DHT22;35045;51.194;7.268;2022-09-12T01:53:19;13.60;99.90
49218;DHT22;35045;51.194;7.268;2022-09-12T01:55:47;13.60;99.90
49218;DHT22;35045;51.194;7.268;2022-09-12T01:58:15;13.60;99.90
49218;DHT22;35045;51.194;7.268;2022-09-12T02:00:43;13.60;99.90
49218;DHT22;35045;51.194;7.268;2022-09-12T02:03:26;13.60;99.90
49218;DHT22;35045;51.194;7.268;2022-09-12T02:05:56;13.60;99.90
49218;DHT22;35045;51.194;7.268;2022-09-12T02:08:25;13.60;99.90
49218;DHT22;35045;51.194;7.268;2022-09-12T02:10:55;13.60;99.90
49218;DHT22;35045;51.194;7.268;2022-09-12T02:13:22;13.60;99.90
49218;DHT22;35045;51.194;7.268;2022-09-12T02:15:49;13.60;99.90
49218;DHT22;35045;51.194;7.268;2022-09-12T02:18:15;13.60;99.90
49218;DHT22;35045;51.194;7.268;2022-09-12T02:20:42;13.60;99.90
49218;DHT22;35045;51.194;7.268;2022-09-12T02:23:10;13.60;99.90
49218;DHT22;35045;51.194;7.268;2022-09-12T02:25:36;13.60;99.90
49218;DHT22;35045;51.194;7.268;2022-09-12T02:28:13;13.60;99.90
49218;DHT22;35045;51.194;7.268;2022-09-12T02:30:39;13.60;99.90
49218;DHT22;35045;51.194;7.268;2022-09-12T02:33:28;13.60;99.90
49218;DHT22;35045;51.194;7.268;2022-09-12T02:36:02;13.60;99.90
49218;DHT22;35045;51.194;7.268;2022-09-12T02:38:40;13.60;99.90
49218;DHT22;35045;51.194;7.268;2022-09-12T02:41:07;13.60;99.90
49218;DHT22;35045;51.194;7.268;2022-09-12T02:43:32;13.60;99.90
49218;DHT22;35045;51.194;7.268;2022-09-12T02:45:57;13.60;99.90
49218;DHT22;35045;51.194;7.268;2022-09-12T02:48:26;13.50;99.90
49218;DHT22;35045;51.194;7.268;2022-09-12T02:50:52;13.50;99.90
49218;DHT22;35045;51.194;7.268;2022-09-12T02:53:17;13.50;99.90
49218;DHT22;35045;51.194;7.268;2022-09-12T02:55:43;13.50;99.90
49218;DHT22;35045;51.194;7.268;2022-09-12T02:58:09;13.50;99.90
49218;DHT22;35045;51.194;7.268;2022-09-12T03:00:56;13.50;99.90
49218;DHT22;35045;51.194;7.268;2022-09-12T03:05:51;13.50;99.90
49218;DHT22;35045;51.194;7.268;2022-09-12T03:10:49;13.40;99.90
49218;DHT22;35045;51.194;7.268;2022-09-12T03:18:40;13.30;99.90
49218;DHT22;35045;51.194;7.268;2022-09-12T03:26:16;13.30;99.90
49218;DHT22;35045;51.194;7.268;2022-09-12T03:28:42;13.40;99.90
49218;DHT22;35045;51.194;7.268;2022-09-12T03:31:12;13.40;99.90
49218;DHT22;35045;51.194;7.268;2022-09-12T03:33:38;13.40;99.90
49218;DHT22;35045;51.194;7.268;2022-09-12T03:36:03;13.40;99.90
49218;DHT22;35045;51.194;7.268;2022-09-12T03:38:28;13.40;99.90
49218;DHT22;35045;51.194;7.268;2022-09-12T03:40:52;13.40;99.90
49218;DHT22;35045;51.194;7.268;2022-09-12T03:43:17;13.40;99.90
49218;DHT22;35045;51.194;7.268;2022-09-12T03:45:43;13.40;99.90
49218;DHT22;35045;51.194;7.268;2022-09-12T03:48:07;13.40;99.90
49218;DHT22;35045;51.194;7.268;2022-09-12T03:50:32;13.40;99.90
49218;DHT22;35045;51.194;7.268;2022-09-12T03:52:57;13.30;99.90
49218;DHT22;35045;51.194;7.268;2022-09-12T03:55:22;13.40;99.90
49218;DHT22;35045;51.194;7.268;2022-09-12T03:57:47;13.40;99.90
49218;DHT22;35045;51.194;7.268;2022-09-12T04:00:12;13.30;99.90
49218;DHT22;35045;51.194;7.268;2022-09-12T04:02:37;13.30;99.90
49218;DHT22;35045;51.194;7.268;2022-09-12T04:05:02;13.40;99.90
49218;DHT22;35045;51.194;7.268;2022-09-12T04:07:27;13.30;99.90
49218;DHT22;35045;51.194;7.268;2022-09-12T04:09:52;13.30;99.90
49218;DHT22;35045;51.194;7.268;2022-09-12T04:12:17;13.30;99.90
49218;DHT22;35045;51.194;7.268;2022-09-12T04:14:42;13.30;99.90
49218;DHT22;35045;51.194;7.268;2022-09-12T04:17:07;13.30;99.90
49218;DHT22;35045;51.194;7.268;2022-09-12T04:19:32;13.30;99.90
49218;DHT22;35045;51.194;7.268;2022-09-12T04:21:57;13.30;99.90
49218;DHT22;35045;51.194;7.268;2022-09-12T04:24:21;13.30;99.90
49218;DHT22;35045;51.194;7.268;2022-09-12T04:26:46;13.20;99.90
49218;DHT22;35045;51.194;7.268;2022-09-12T04:29:11;13.20;99.90
49218;DHT22;35045;51.194;7.268;2022-09-12T04:31:36;13.20;99.90
49218;DHT22;35045;51.194;7.268;2022-09-12T04:34:02;13.20;99.90
49218;DHT22;35045;51.194;7.268;2022-09-12T04:36:27;13.20;99.90
49218;DHT22;35045;51.194;7.268;2022-09-12T04:38:52;13.20;99.90
49218;DHT22;35045;51.194;7.268;2022-09-12T04:43:42;13.20;99.90
49218;DHT22;35045;51.194;7.268;2022-09-12T04:46:10;13.20;99.90
49218;DHT22;35045;51.194;7.268;2022-09-12T04:48:35;13.20;99.90
49218;DHT22;35045;51.194;7.268;2022-09-12T04:51:10;13.20;99.90
49218;DHT22;35045;51.194;7.268;2022-09-12T04:53:35;13.20;99.90
49218;DHT22;35045;51.194;7.268;2022-09-12T04:56:02;13.20;99.90
49218;DHT22;35045;51.194;7.268;2022-09-12T04:58:27;13.20;99.90
49218;DHT22;35045;51.194;7.268;2022-09-12T05:00:52;13.20;99.90
49218;DHT22;35045;51.194;7.268;2022-09-12T05:03:17;13.10;99.90
49218;DHT22;35045;51.194;7.268;2022-09-12T05:05:42;13.10;99.90
49218;DHT22;35045;51.194;7.268;2022-09-12T05:08:06;13.10;99.90
49218;DHT22;35045;51.194;7.268;2022-09-12T05:10:32;13.10;99.90
49218;DHT22;35045;51.194;7.268;2022-09-12T05:12:57;13.10;99.90
49218;DHT22;35045;51.194;7.268;2022-09-12T05:15:22;13.10;99.90
49218;DHT22;35045;51.194;7.268;2022-09-12T05:17:48;13.10;99.90
49218;DHT22;35045;51.194;7.268;2022-09-12T05:20:13;13.20;99.90
49218;DHT22;35045;51.194;7.268;2022-09-12T05:22:38;13.20;99.90
49218;DHT22;35045;51.194;7.268;2022-09-12T05:25:03;13.20;99.90
49218;DHT22;35045;51.194;7.268;2022-09-12T05:27:29;13.30;99.90
49218;DHT22;35045;51.194;7.268;2022-09-12T05:29:54;13.30;99.90
49218;DHT22;35045;51.194;7.268;2022-09-12T05:32:19;13.40;99.90
49218;DHT22;35045;51.194;7.268;2022-09-12T05:34:44;13.40;99.90
49218;DHT22;35045;51.194;7.268;2022-09-12T05:37:09;13.50;99.90
49218;DHT22;35045;51.194;7.268;2022-09-12T05:39:34;13.60;99.90
49218;DHT22;35045;51.194;7.268;2022-09-12T05:41:58;13.60;99.90
49218;DHT22;35045;51.194;7.268;2022-09-12T05:44:23;13.70;99.90
49218;DHT22;35045;51.194;7.268;2022-09-12T05:46:48;13.80;99.90
49218;DHT22;35045;51.194;7.268;2022-09-12T05:49:14;13.80;99.90
49218;DHT22;35045;51.194;7.268;2022-09-12T05:51:40;13.90;99.90
49218;DHT22;35045;51.194;7.268;2022-09-12T05:54:06;14.00;99.90
49218;DHT22;35045;51.194;7.268;2022-09-12T05:56:33;14.00;99.90
49218;DHT22;35045;51.194;7.268;2022-09-12T05:58:59;14.10;99.90
49218;DHT22;35045;51.194;7.268;2022-09-12T06:01:24;14.20;99.90
49218;DHT22;35045;51.194;7.268;2022-09-12T06:03:51;14.30;99.90
49218;DHT22;35045;51.194;7.268;2022-09-12T06:06:17;14.40;99.90
49218;DHT22;35045;51.194;7.268;2022-09-12T06:08:43;14.50;99.90
49218;DHT22;35045;51.194;7.268;2022-09-12T06:11:09;14.60;99.90
49218;DHT22;35045;51.194;7.268;2022-09-12T06:13:35;14.60;99.90
49218;DHT22;35045;51.194;7.268;2022-09-12T06:16:05;14.70;99.90
49218;DHT22;35045;51.194;7.268;2022-09-12T06:18:31;14.80;99.90
49218;DHT22;35045;51.194;7.268;2022-09-12T06:20:56;14.90;99.90
49218;DHT22;35045;51.194;7.268;2022-09-12T06:23:21;14.90;99.90
49218;DHT22;35045;51.194;7.268;2022-09-12T06:25:46;15.00;99.90
49218;DHT22;35045;51.194;7.268;2022-09-12T06:28:13;15.10;99.90
49218;DHT22;35045;51.194;7.268;2022-09-12T06:30:37;15.20;99.90
49218;DHT22;35045;51.194;7.268;2022-09-12T06:33:02;15.20;99.90
49218;DHT22;35045;51.194;7.268;2022-09-12T06:35:27;15.30;99.90
49218;DHT22;35045;51.194;7.268;2022-09-12T06:37:52;15.40;99.90
49218;DHT22;35045;51.194;7.268;2022-09-12T06:40:17;15.40;99.90
49218;DHT22;35045;51.194;7.268;2022-09-12T06:42:42;15.50;99.90
49218;DHT22;35045;51.194;7.268;2022-09-12T06:45:07;15.60;99.90
49218;DHT22;35045;51.194;7.268;2022-09-12T06:47:32;15.60;99.90
49218;DHT22;35045;51.194;7.268;2022-09-12T06:49:57;15.70;99.90
49218;DHT22;35045;51.194;7.268;2022-09-12T06:52:22;15.70;99.90
49218;DHT22;35045;51.194;7.268;2022-09-12T06:54:47;15.70;99.90
49218;DHT22;35045;51.194;7.268;2022-09-12T06:57:12;15.80;99.90
49218;DHT22;35045;51.194;7.268;2022-09-12T06:59:37;15.90;99.90
49218;DHT22;35045;51.194;7.268;2022-09-12T07:02:02;16.00;99.90
49218;DHT22;35045;51.194;7.268;2022-09-12T07:04:27;15.90;99.90
49218;DHT22;35045;51.194;7.268;2022-09-12T07:06:52;16.00;99.90
49218;DHT22;35045;51.194;7.268;2022-09-12T07:09:17;16.00;99.90
49218;DHT22;35045;51.194;7.268;2022-09-12T07:11:42;16.00;99.90
49218;DHT22;35045;51.194;7.268;2022-09-12T07:14:08;16.10;99.90
49218;DHT22;35045;51.194;7.268;2022-09-12T07:16:34;16.20;99.90
49218;DHT22;35045;51.194;7.268;2022-09-12T07:19:00;16.40;99.90
49218;DHT22;35045;51.194;7.268;2022-09-12T07:21:25;16.40;99.90
49218;DHT22;35045;51.194;7.268;2022-09-12T07:23:50;16.50;99.90
49218;DHT22;35045;51.194;7.268;2022-09-12T07:26:15;16.70;99.90
49218;DHT22;35045;51.194;7.268;2022-09-12T07:28:40;16.80;99.90
49218;DHT22;35045;51.194;7.268;2022-09-12T07:33:30;16.90;99.90
49218;DHT22;35045;51.194;7.268;2022-09-12T07:35:59;17.10;99.90
49218;DHT22;35045;51.194;7.268;2022-09-12T07:38:24;17.10;99.90
49218;DHT22;35045;51.194;7.268;2022-09-12T07:40:49;17.30;99.90
49218;DHT22;35045;51.194;7.268;2022-09-12T07:43:14;17.30;99.90
49218;DHT22;35045;51.194;7.268;2022-09-12T07:45:38;17.30;99.90
49218;DHT22;35045;51.194;7.268;2022-09-12T07:48:06;17.40;99.90
49218;DHT22;35045;51.194;7.268;2022-09-12T07:50:31;17.50;99.90
49218;DHT22;35045;51.194;7.268;2022-09-12T07:52:57;17.60;99.90
49218;DHT22;35045;51.194;7.268;2022-09-12T07:55:21;17.60;99.90
49218;DHT22;35045;51.194;7.268;2022-09-12T07:57:50;17.70;99.90
49218;DHT22;35045;51.194;7.268;2022-09-12T08:00:15;17.70;99.90
49218;DHT22;35045;51.194;7.268;2022-09-12T08:02:40;17.80;99.90
49218;DHT22;35045;51.194;7.268;2022-09-12T08:05:05;17.80;99.90
49218;DHT22;35045;51.194;7.268;2022-09-12T08:07:30;17.80;99.90
49218;DHT22;35045;51.194;7.268;2022-09-12T08:09:55;17.80;99.90
49218;DHT22;35045;51.194;7.268;2022-09-12T08:12:20;17.80;99.90
49218;DHT22;35045;51.194;7.268;2022-09-12T08:14:45;17.80;99.90
49218;DHT22;35045;51.194;7.268;2022-09-12T08:17:10;17.80;99.90
49218;DHT22;35045;51.194;7.268;2022-09-12T08:19:35;17.80;99.90
49218;DHT22;35045;51.194;7.268;2022-09-12T08:21:59;17.90;99.90
49218;DHT22;35045;51.194;7.268;2022-09-12T08:24:24;17.90;99.90
49218;DHT22;35045;51.194;7.268;2022-09-12T08:26:49;17.90;99.90
49218;DHT22;35045;51.194;7.268;2022-09-12T08:29:14;17.90;99.90
49218;DHT22;35045;51.194;7.268;2022-09-12T08:31:39;17.90;99.90
49218;DHT22;35045;51.194;7.268;2022-09-12T08:34:06;17.90;99.90
49218;DHT22;35045;51.194;7.268;2022-09-12T08:36:31;17.90;99.90
49218;DHT22;35045;51.194;7.268;2022-09-12T08:38:57;18.00;99.90
49218;DHT22;35045;51.194;7.268;2022-09-12T08:49:29;18.20;99.90
49218;DHT22;35045;51.194;7.268;2022-09-12T08:51:57;18.40;99.90
49218;DHT22;35045;51.194;7.268;2022-09-12T08:54:24;18.50;99.90
49218;DHT22;35045;51.194;7.268;2022-09-12T08:56:50;18.60;99.90
49218;DHT22;35045;51.194;7.268;2022-09-12T08:59:20;18.60;99.90
49218;DHT22;35045;51.194;7.268;2022-09-12T09:01:44;18.60;99.90
49218;DHT22;35045;51.194;7.268;2022-09-12T09:06:42;18.70;99.90
49218;DHT22;35045;51.194;7.268;2022-09-12T09:11:46;18.80;99.90
49218;DHT22;35045;51.194;7.268;2022-09-12T09:17:03;19.00;99.90
49218;DHT22;35045;51.194;7.268;2022-09-12T09:19:34;19.20;99.90
49218;DHT22;35045;51.194;7.268;2022-09-12T09:22:02;19.30;99.90
49218;DHT22;35045;51.194;7.268;2022-09-12T09:24:44;19.30;99.90
49218;DHT22;35045;51.194;7.268;2022-09-12T09:27:14;19.20;99.90
49218;DHT22;35045;51.194;7.268;2022-09-12T09:29:44;19.30;99.90
49218;DHT22;35045;51.194;7.268;2022-09-12T09:32:16;19.50;99.90
49218;DHT22;35045;51.194;7.268;2022-09-12T09:34:42;19.60;99.90
49218;DHT22;35045;51.194;7.268;2022-09-12T09:37:17;19.60;99.90
49218;DHT22;35045;51.194;7.268;2022-09-12T09:43:03;19.90;99.90
49218;DHT22;35045;51.194;7.268;2022-09-12T09:45:12;20.20;99.90
49218;DHT22;35045;51.194;7.268;2022-09-12T09:47:39;20.30;99.90
49218;DHT22;35045;51.194;7.268;2022-09-12T09:50:04;20.30;99.90
49218;DHT22;35045;51.194;7.268;2022-09-12T09:52:30;20.30;99.90
49218;DHT22;35045;51.194;7.268;2022-09-12T09:54:57;20.50;99.90
49218;DHT22;35045;51.194;7.268;2022-09-12T10:02:43;20.80;99.90
49218;DHT22;35045;51.194;7.268;2022-09-12T10:05:20;20.90;99.90
49218;DHT22;35045;51.194;7.268;2022-09-12T10:07:49;21.00;99.90
49218;DHT22;35045;51.194;7.268;2022-09-12T10:10:16;20.90;99.90
49218;DHT22;35045;51.194;7.268;2022-09-12T10:12:41;20.80;99.90
49218;DHT22;35045;51.194;7.268;2022-09-12T10:15:15;20.80;99.90
49218;DHT22;35045;51.194;7.268;2022-09-12T10:17:42;20.70;99.90
49218;DHT22;35045;51.194;7.268;2022-09-12T10:22:50;20.90;99.90
49218;DHT22;35045;51.194;7.268;2022-09-12T10:25:15;21.10;99.90
49218;DHT22;35045;51.194;7.268;2022-09-12T10:27:42;21.20;99.90
49218;DHT22;35045;51.194;7.268;2022-09-12T10:32:38;21.30;99.90
49218;DHT22;35045;51.194;7.268;2022-09-12T10:35:15;21.40;99.90
49218;DHT22;35045;51.194;7.268;2022-09-12T10:37:41;21.50;99.90
49218;DHT22;35045;51.194;7.268;2022-09-12T10:40:21;21.50;99.90
49218;DHT22;35045;51.194;7.268;2022-09-12T10:42:51;21.60;99.90
49218;DHT22;35045;51.194;7.268;2022-09-12T10:45:26;21.60;99.90
49218;DHT22;35045;51.194;7.268;2022-09-12T10:47:54;21.60;99.90
49218;DHT22;35045;51.194;7.268;2022-09-12T10:50:28;21.60;99.90
49218;DHT22;35045;51.194;7.268;2022-09-12T10:52:53;21.60;99.90
49218;DHT22;35045;51.194;7.268;2022-09-12T10:55:24;21.70;99.90
49218;DHT22;35045;51.194;7.268;2022-09-12T10:57:58;21.90;99.80
49218;DHT22;35045;51.194;7.268;2022-09-12T11:00:25;22.10;99.90
49218;DHT22;35045;51.194;7.268;2022-09-12T11:02:57;22.20;99.90
49218;DHT22;35045;51.194;7.268;2022-09-12T11:05:34;22.30;98.90
49218;DHT22;35045;51.194;7.268;2022-09-12T11:08:05;22.30;99.50
49218;DHT22;35045;51.194;7.268;2022-09-12T11:10:38;22.20;99.20
49218;DHT22;35045;51.194;7.268;2022-09-12T11:13:10;22.20;99.90
49218;DHT22;35045;51.194;7.268;2022-09-12T11:21:02;22.40;98.20
49218;DHT22;35045;51.194;7.268;2022-09-12T11:31:21;22.50;97.60
49218;DHT22;35045;51.194;7.268;2022-09-12T11:33:50;22.50;97.40
49218;DHT22;35045;51.194;7.268;2022-09-12T11:36:19;22.60;97.40
49218;DHT22;35045;51.194;7.268;2022-09-12T11:38:54;22.70;97.00
49218;DHT22;35045;51.194;7.268;2022-09-12T11:41:46;22.70;97.20
49218;DHT22;35045;51.194;7.268;2022-09-12T11:44:11;22.80;97.00
49218;DHT22;35045;51.194;7.268;2022-09-12T11:46:39;23.00;96.60
49218;DHT22;35045;51.194;7.268;2022-09-12T11:49:10;23.10;96.50
49218;DHT22;35045;51.194;7.268;2022-09-12T11:56:46;23.50;96.40
49218;DHT22;35045;51.194;7.268;2022-09-12T12:01:56;23.70;94.90
49218;DHT22;35045;51.194;7.268;2022-09-12T12:04:24;23.80;93.80
49218;DHT22;35045;51.194;7.268;2022-09-12T12:06:53;24.00;95.20
49218;DHT22;35045;51.194;7.268;2022-09-12T12:09:20;24.20;94.60
49218;DHT22;35045;51.194;7.268;2022-09-12T12:11:47;24.40;94.30
49218;DHT22;35045;51.194;7.268;2022-09-12T12:14:13;24.50;94.30
49218;DHT22;35045;51.194;7.268;2022-09-12T12:16:39;24.60;93.80
49218;DHT22;35045;51.194;7.268;2022-09-12T12:21:39;24.60;94.00
49218;DHT22;35045;51.194;7.268;2022-09-12T12:29:12;24.50;94.10
49218;DHT22;35045;51.194;7.268;2022-09-12T12:34:31;24.90;93.00
49218;DHT22;35045;51.194;7.268;2022-09-12T12:36:56;25.00;92.40
49218;DHT22;35045;51.194;7.268;2022-09-12T12:41:57;25.10;93.40
49218;DHT22;35045;51.194;7.268;2022-09-12T12:44:45;25.20;93.30
49218;DHT22;35045;51.194;7.268;2022-09-12T12:47:15;25.30;92.80
49218;DHT22;35045;51.194;7.268;2022-09-12T12:49:41;25.40;92.80
49218;DHT22;35045;51.194;7.268;2022-09-12T12:52:15;25.60;92.00
49218;DHT22;35045;51.194;7.268;2022-09-12T12:59:36;25.50;91.50
49218;DHT22;35045;51.194;7.268;2022-09-12T13:02:01;25.40;91.60
49218;DHT22;35045;51.194;7.268;2022-09-12T13:04:28;25.60;91.60
49218;DHT22;35045;51.194;7.268;2022-09-12T13:07:04;25.60;90.80
49218;DHT22;35045;51.194;7.268;2022-09-12T13:09:35;25.80;90.70
49218;DHT22;35045;51.194;7.268;2022-09-12T13:12:05;25.90;90.60
49218;DHT22;35045;51.194;7.268;2022-09-12T13:14:36;25.90;90.40
49218;DHT22;35045;51.194;7.268;2022-09-12T13:20:01;26.50;90.30
49218;DHT22;35045;51.194;7.268;2022-09-12T13:22:37;26.60;89.30
49218;DHT22;35045;51.194;7.268;2022-09-12T13:25:16;26.60;90.00
49218;DHT22;35045;51.194;7.268;2022-09-12T13:27:41;26.80;90.00
49218;DHT22;35045;51.194;7.268;2022-09-12T13:30:19;27.00;89.30
49218;DHT22;35045;51.194;7.268;2022-09-12T13:32:44;27.10;87.40
49218;DHT22;35045;51.194;7.268;2022-09-12T13:35:13;27.20;87.20
49218;DHT22;35045;51.194;7.268;2022-09-12T13:37:42;27.20;86.40
49218;DHT22;35045;51.194;7.268;2022-09-12T13:40:16;27.50;85.70
49218;DHT22;35045;51.194;7.268;2022-09-12T13:42:47;27.80;85.60
49218;DHT22;35045;51.194;7.268;2022-09-12T13:45:19;27.90;85.50
49218;DHT22;35045;51.194;7.268;2022-09-12T13:47:45;28.00;84.90
49218;DHT22;35045;51.194;7.268;2022-09-12T13:50:18;27.90;82.20
49218;DHT22;35045;51.194;7.268;2022-09-12T13:53:18;28.10;83.50
49218;DHT22;35045;51.194;7.268;2022-09-12T13:55:35;28.20;82.60
49218;DHT22;35045;51.194;7.268;2022-09-12T14:00:45;27.90;82.40
49218;DHT22;35045;51.194;7.268;2022-09-12T14:03:23;27.90;81.70
49218;DHT22;35045;51.194;7.268;2022-09-12T14:06:07;28.00;81.20
49218;DHT22;35045;51.194;7.268;2022-09-12T14:08:32;28.10;80.00
49218;DHT22;35045;51.194;7.268;2022-09-12T14:10:57;28.00;80.30
49218;DHT22;35045;51.194;7.268;2022-09-12T14:13:23;28.20;80.10
49218;DHT22;35045;51.194;7.268;2022-09-12T14:15:49;28.30;81.20
49218;DHT22;35045;51.194;7.268;2022-09-12T14:18:36;28.40;81.30
49218;DHT22;35045;51.194;7.268;2022-09-12T14:21:06;28.40;80.30
49218;DHT22;35045;51.194;7.268;2022-09-12T14:23:34;27.90;82.20
49218;DHT22;35045;51.194;7.268;2022-09-12T14:26:03;27.60;83.20
49218;DHT22;35045;51.194;7.268;2022-09-12T14:28:29;27.50;82.60
49218;DHT22;35045;51.194;7.268;2022-09-12T14:31:08;27.50;82.60
49218;DHT22;35045;51.194;7.268;2022-09-12T14:33:45;27.60;83.50
49218;DHT22;35045;51.194;7.268;2022-09-12T14:39:03;27.40;82.90
49218;DHT22;35045;51.194;7.268;2022-09-12T14:41:30;27.30;83.20
49218;DHT22;35045;51.194;7.268;2022-09-12T14:43:59;27.30;81.70
49218;DHT22;35045;51.194;7.268;2022-09-12T14:46:26;27.10;80.80
49218;DHT22;35045;51.194;7.268;2022-09-12T14:48:52;26.90;81.40
49218;DHT22;35045;51.194;7.268;2022-09-12T14:51:19;26.80;82.00
49218;DHT22;35045;51.194;7.268;2022-09-12T14:53:48;26.40;81.40
49218;DHT22;35045;51.194;7.268;2022-09-12T14:56:13;26.20;81.60
49218;DHT22;35045;51.194;7.268;2022-09-12T14:58:38;26.10;82.70
49218;DHT22;35045;51.194;7.268;2022-09-12T15:03:33;26.00;84.50
49218;DHT22;35045;51.194;7.268;2022-09-12T15:05:58;25.80;85.20
49218;DHT22;35045;51.194;7.268;2022-09-12T15:08:24;25.80;85.70
49218;DHT22;35045;51.194;7.268;2022-09-12T15:10:49;25.70;85.20
49218;DHT22;35045;51.194;7.268;2022-09-12T15:13:15;25.50;84.50
49218;DHT22;35045;51.194;7.268;2022-09-12T15:15:47;25.40;85.10
49218;DHT22;35045;51.194;7.268;2022-09-12T15:18:12;25.30;86.10
49218;DHT22;35045;51.194;7.268;2022-09-12T15:20:39;25.20;85.50
49218;DHT22;35045;51.194;7.268;2022-09-12T15:23:14;25.10;85.30
49218;DHT22;35045;51.194;7.268;2022-09-12T15:25:39;25.00;85.00
49218;DHT22;35045;51.194;7.268;2022-09-12T15:28:07;24.90;85.40
49218;DHT22;35045;51.194;7.268;2022-09-12T15:30:36;24.90;85.50
49218;DHT22;35045;51.194;7.268;2022-09-12T15:33:01;25.00;86.40
49218;DHT22;35045;51.194;7.268;2022-09-12T15:35:26;24.90;85.30
49218;DHT22;35045;51.194;7.268;2022-09-12T15:37:52;24.80;86.10
49218;DHT22;35045;51.194;7.268;2022-09-12T15:40:17;24.80;85.90
49218;DHT22;35045;51.194;7.268;2022-09-12T15:42:42;24.70;87.20
49218;DHT22;35045;51.194;7.268;2022-09-12T15:47:38;24.50;86.90
49218;DHT22;35045;51.194;7.268;2022-09-12T15:50:03;24.40;85.70
49218;DHT22;35045;51.194;7.268;2022-09-12T15:52:28;24.30;85.30
49218;DHT22;35045;51.194;7.268;2022-09-12T15:54:53;24.30;86.30
49218;DHT22;35045;51.194;7.268;2022-09-12T15:57:18;24.30;86.30
49218;DHT22;35045;51.194;7.268;2022-09-12T15:59:43;24.30;85.20
49218;DHT22;35045;51.194;7.268;2022-09-12T16:02:08;24.30;86.00
49218;DHT22;35045;51.194;7.268;2022-09-12T16:04:33;24.20;84.50
49218;DHT22;35045;51.194;7.268;2022-09-12T16:06:58;24.20;84.90
49218;DHT22;35045;51.194;7.268;2022-09-12T16:09:23;24.10;84.70
49218;DHT22;35045;51.194;7.268;2022-09-12T16:11:48;24.10;85.70
49218;DHT22;35045;51.194;7.268;2022-09-12T16:14:13;24.00;86.00
49218;DHT22;35045;51.194;7.268;2022-09-12T16:16:39;23.90;86.00
49218;DHT22;35045;51.194;7.268;2022-09-12T16:19:03;23.80;86.80
49218;DHT22;35045;51.194;7.268;2022-09-12T16:21:28;23.80;87.20
49218;DHT22;35045;51.194;7.268;2022-09-12T16:23:53;23.80;87.80
49218;DHT22;35045;51.194;7.268;2022-09-12T16:26:18;23.70;87.20
49218;DHT22;35045;51.194;7.268;2022-09-12T16:28:43;23.60;87.80
49218;DHT22;35045;51.194;7.268;2022-09-12T16:31:09;23.60;88.00
49218;DHT22;35045;51.194;7.268;2022-09-12T16:33:36;23.50;88.30
49218;DHT22;35045;51.194;7.268;2022-09-12T16:36:04;23.50;88.10
49218;DHT22;35045;51.194;7.268;2022-09-12T16:38:29;23.50;88.50
49218;DHT22;35045;51.194;7.268;2022-09-12T16:41:01;23.50;88.90
49218;DHT22;35045;51.194;7.268;2022-09-12T16:43:26;23.40;88.90
49218;DHT22;35045;51.194;7.268;2022-09-12T16:45:59;23.40;89.50
49218;DHT22;35045;51.194;7.268;2022-09-12T16:48:23;23.40;89.80
49218;DHT22;35045;51.194;7.268;2022-09-12T16:50:54;23.40;90.00
49218;DHT22;35045;51.194;7.268;2022-09-12T16:53:19;23.40;89.90
49218;DHT22;35045;51.194;7.268;2022-09-12T16:55:47;23.30;90.00
49218;DHT22;35045;51.194;7.268;2022-09-12T16:58:12;23.30;90.30
49218;DHT22;35045;51.194;7.268;2022-09-12T17:00:37;23.30;90.30
49218;DHT22;35045;51.194;7.268;2022-09-12T17:03:02;23.20;90.50
49218;DHT22;35045;51.194;7.268;2022-09-12T17:05:27;23.10;90.50
49218;DHT22;35045;51.194;7.268;2022-09-12T17:07:53;23.10;90.70
49218;DHT22;35045;51.194;7.268;2022-09-12T17:10:17;23.00;90.70
49218;DHT22;35045;51.194;7.268;2022-09-12T17:12:42;22.90;91.00
49218;DHT22;35045;51.194;7.268;2022-09-12T17:15:07;22.90;91.10
49218;DHT22;35045;51.194;7.268;2022-09-12T17:17:33;22.80;91.20
49218;DHT22;35045;51.194;7.268;2022-09-12T17:19:58;22.70;91.40
49218;DHT22;35045;51.194;7.268;2022-09-12T17:22:23;22.70;91.60
49218;DHT22;35045;51.194;7.268;2022-09-12T17:24:48;22.70;91.70